Tompa, Hungary
Current Conditions -  °F | °C
As of 6:45 PM on Thursday 30 Oct 2014 (Local Time) from LHUD Reporting Station
Broken Clouds Broken Clouds  
Wind Chill: 46°   Ceiling: 3000
Heat Index: 46°   Visibility: 5mi
Dew Point: 43°   Wind: 3mph
Humidity: 87%   Direction: 330°NNW
Pressure: 30.3"   Gusts: NA
Location:  46.21°N, 19.54°E
Report Text: LHUD 301645Z 33003KT 8000 BKN030 08/06 Q1026
Loading
Personal Weather Stations






























Interactive Weather Map
Tropical Storm Tracking
New forecast layout! Learn more

10-Day Weather Forecast

Advertisements
Track Severe Weather on mobile